Oldtown, Maryland
Current Conditions -  °F | °C
As of 11:00 AM on Sunday 23 Nov 2014 (Local Time) from KCBE Reporting Station
Clear Clear  
Wind Chill: 48°   Ceiling: Unl
Heat Index: 48°   Visibility: 10mi
Dew Point: 25°   Wind: 3mph
Humidity: 40%   Direction: 190°S
Pressure: 30.17"   Gusts: NA
Location:  39.54°N, 78.61°W
Report Text: KCBE 231600Z AUTO 19003KT 10SM CLR 09/M04 A3017 RMK AO1
Loading
Personal Weather Stations






























Interactive Weather Map New forecast layout! Learn more

10-Day Weather Forecast

Advertisements
Track Severe Weather on mobile